Time;durP1;ratioP1;P1;durP2;ratioP2;P2;SDS_P1;SDS_P2;PMS_P1;PMS_P2;Temp;Humidity;BMP_temperature;BMP_pressure;BME280_temperature;BME280_humidity;BME280_pressure;Samples;Min_cycle;Max_cycle;Signal;HPM_P1;HPM_P2
2022/01/16 00:00:40;;;;;;;72.38;28.73;;;;;;;-0.62;100.00;97361.19;4981954;28;20517;-65
2022/01/16 00:05:56;;;;;;;70.43;30.50;;;;;;;-0.60;100.00;97372.50;4970782;28;20046;-66
2022/01/16 00:08:21;;;;;;;74.97;31.27;;;;;;;-0.84;100.00;97383.09;4979054;28;20762;-65
2022/01/16 00:10:47;;;;;;;86.13;30.33;;;;;;;-0.93;100.00;97409.75;4998784;28;20052;-67
2022/01/16 00:13:13;;;;;;;74.88;30.88;;;;;;;-0.84;100.00;97412.69;4981509;28;20114;-64
2022/01/16 00:15:38;;;;;;;76.38;31.38;;;;;;;-0.77;100.00;97402.44;4982577;28;20118;-66
2022/01/16 00:20:30;;;;;;;75.78;31.27;;;;;;;-0.66;100.00;97373.59;4998838;28;20046;-67
2022/01/16 00:22:57;;;;;;;70.38;30.25;;;;;;;-0.71;100.00;97354.78;4983050;28;20070;-67
2022/01/16 00:25:22;;;;;;;80.07;31.67;;;;;;;-0.71;100.00;97362.88;4978989;28;20120;-67
2022/01/16 00:27:48;;;;;;;85.25;33.42;;;;;;;-0.77;100.00;97372.84;4983836;28;20042;-66
2022/01/16 00:30:14;;;;;;;83.30;33.08;;;;;;;-0.75;100.00;97351.06;4979718;28;20070;-65
2022/01/16 00:32:40;;;;;;;80.35;31.38;;;;;;;-0.86;100.00;97361.88;4983884;28;20046;-66
2022/01/16 00:35:06;;;;;;;96.03;32.90;;;;;;;-0.86;100.00;97369.13;4977632;28;20089;-67
2022/01/16 00:37:31;;;;;;;134.38;33.95;;;;;;;-0.89;100.00;97394.69;4982994;28;20481;-66
2022/01/16 00:39:57;;;;;;;88.47;33.05;;;;;;;-0.89;100.00;97377.75;4984085;28;20053;-67
2022/01/16 00:42:22;;;;;;;82.07;31.40;;;;;;;-0.86;100.00;97401.41;4977389;28;20852;-66
2022/01/16 00:44:47;;;;;;;83.45;33.85;;;;;;;-0.81;100.00;97379.84;4990232;28;20069;-65
2022/01/16 00:47:13;;;;;;;82.25;32.33;;;;;;;-0.83;100.00;97385.53;4987138;28;20042;-68
2022/01/16 00:49:39;;;;;;;79.88;31.08;;;;;;;-0.85;100.00;97395.72;4994187;28;20050;-66
2022/01/16 00:52:06;;;;;;;101.38;31.38;;;;;;;-0.92;100.00;97386.34;4987683;28;20046;-67
2022/01/16 00:54:32;;;;;;;84.53;34.08;;;;;;;-0.87;100.00;97391.72;4974483;28;20058;-67
2022/01/16 00:56:57;;;;;;;80.97;32.13;;;;;;;-0.86;100.00;97394.13;4998624;28;20044;-67
2022/01/16 00:59:22;;;;;;;96.85;34.42;;;;;;;-1.03;100.00;97412.47;4998353;28;20093;-67
2022/01/16 01:01:48;;;;;;;89.35;33.80;;;;;;;-0.96;100.00;97418.38;5003437;28;20033;-66
2022/01/16 01:04:15;;;;;;;86.20;33.08;;;;;;;-0.91;100.00;97422.94;4998637;28;20093;-65
2022/01/16 01:06:41;;;;;;;92.70;34.38;;;;;;;-0.85;100.00;97429.91;5015068;28;20105;-65
2022/01/16 01:09:06;;;;;;;91.65;34.22;;;;;;;-0.96;100.00;97429.13;5031636;28;20790;-65
2022/01/16 01:11:32;;;;;;;94.50;32.05;;;;;;;-0.81;100.00;97431.78;4998020;28;20460;-66
2022/01/16 01:16:35;;;;;;;81.63;34.28;;;;;;;-0.85;100.00;97346.53;4957176;28;20050;-67
2022/01/16 01:19:00;;;;;;;88.55;33.95;;;;;;;-0.89;100.00;97332.81;4974711;28;20384;-67
2022/01/16 01:21:28;;;;;;;91.72;35.40;;;;;;;-0.78;100.00;97334.38;4976422;28;20042;-67
2022/01/16 01:23:57;;;;;;;81.30;32.88;;;;;;;-0.67;100.00;97348.56;4983469;28;20046;-67
2022/01/16 01:26:28;;;;;;;91.10;35.05;;;;;;;-0.78;100.00;97344.34;4992409;28;20814;-66
2022/01/16 01:28:54;;;;;;;91.53;33.95;;;;;;;-0.84;100.00;97359.69;4983293;28;20065;-66
2022/01/16 01:31:19;;;;;;;89.13;33.47;;;;;;;-0.86;100.00;97382.59;4976003;28;20120;-66
2022/01/16 01:33:47;;;;;;;85.80;35.13;;;;;;;-0.87;100.00;97387.13;4995239;28;20495;-65
2022/01/16 01:36:12;;;;;;;95.43;34.45;;;;;;;-0.89;100.00;97407.31;4987207;28;20050;-65
2022/01/16 01:38:37;;;;;;;92.03;34.78;;;;;;;-0.72;100.00;97413.19;4984774;28;20126;-66
2022/01/16 01:41:03;;;;;;;86.20;32.42;;;;;;;-0.64;100.00;97411.78;4983697;28;20132;-64
2022/01/16 01:51:42;;;;;;;86.10;34.53;;;;;;;-0.56;100.00;97416.59;4981546;28;20559;-67
2022/01/16 01:54:08;;;;;;;92.30;32.90;;;;;;;-0.56;100.00;97423.84;4975862;28;20399;-66
2022/01/16 01:56:35;;;;;;;83.65;33.30;;;;;;;-0.58;100.00;97426.81;4981036;28;20038;-67
2022/01/16 01:59:01;;;;;;;78.88;31.40;;;;;;;-0.69;100.00;97430.66;4980802;28;20050;-67
2022/01/16 02:01:28;;;;;;;89.25;34.08;;;;;;;-0.72;100.00;97453.53;4975721;28;20046;-69
2022/01/16 02:03:54;;;;;;;84.95;32.97;;;;;;;-0.75;100.00;97442.53;4984455;28;20046;-66
2022/01/16 02:06:22;;;;;;;84.57;33.58;;;;;;;-0.73;100.00;97445.75;4976228;28;20042;-66
2022/01/16 02:08:53;;;;;;;83.63;31.77;;;;;;;-0.70;100.00;97455.94;4991562;28;20462;-66
2022/01/16 02:11:24;;;;;;;89.55;35.22;;;;;;;-0.55;100.00;97457.78;4976646;28;20050;-66
2022/01/16 02:33:23;;;;;;;77.70;31.85;;;;;;;-0.44;100.00;97443.19;4971737;28;20053;-66
2022/01/16 02:35:48;;;;;;;81.20;31.42;;;;;;;-0.48;100.00;97442.94;4977260;28;20074;-67
2022/01/16 02:38:14;;;;;;;81.00;32.30;;;;;;;-0.41;100.00;97426.50;4976294;28;20053;-67
2022/01/16 02:40:44;;;;;;;77.38;31.25;;;;;;;-0.45;100.00;97431.63;4989780;28;20475;-67
2022/01/16 02:43:09;;;;;;;77.57;32.78;;;;;;;-0.45;100.00;97434.31;4980766;28;20404;-66
2022/01/16 02:45:37;;;;;;;75.18;31.63;;;;;;;-0.43;100.00;97421.38;4978139;28;20050;-66
2022/01/16 02:48:06;;;;;;;81.38;33.05;;;;;;;-0.47;100.00;97411.44;4977148;28;20053;-65
2022/01/16 02:50:34;;;;;;;82.28;31.70;;;;;;;-0.36;100.00;97402.25;4982215;28;20041;-66
2022/01/16 02:52:59;;;;;;;77.55;31.90;;;;;;;-0.39;100.00;97395.50;4996613;28;20053;-66
2022/01/16 02:55:25;;;;;;;77.45;32.42;;;;;;;-0.40;100.00;97393.09;4974232;28;20054;-67
2022/01/16 02:57:53;;;;;;;77.88;31.85;;;;;;;-0.39;100.00;97382.06;4990130;28;20061;-65
2022/01/16 03:00:20;;;;;;;72.47;32.67;;;;;;;-0.44;100.00;97394.75;4991097;28;20042;-66
2022/01/16 03:02:45;;;;;;;72.22;32.80;;;;;;;-0.53;100.00;97397.19;4980944;28;20038;-67
2022/01/16 03:05:14;;;;;;;80.03;33.53;;;;;;;-0.39;100.00;97400.88;4970826;28;20096;-67
2022/01/16 03:07:40;;;;;;;86.20;35.53;;;;;;;-0.52;100.00;97392.63;4981586;28;20046;-67
2022/01/16 03:12:50;;;;;;;84.55;36.78;;;;;;;-0.71;100.00;97392.47;4979102;28;20054;-67
2022/01/16 03:15:17;;;;;;;87.30;36.50;;;;;;;-0.70;100.00;97391.38;4976550;28;20070;-66
2022/01/16 03:23:18;;;;;;;90.63;38.22;;;;;;;-0.87;100.00;97387.13;4976649;28;20097;-67
2022/01/16 03:25:45;;;;;;;97.88;38.78;;;;;;;-0.80;100.00;97384.16;4979343;28;20043;-67
2022/01/16 03:28:10;;;;;;;98.28;38.40;;;;;;;-0.82;100.00;97387.13;4976685;28;20080;-64
2022/01/16 03:30:36;;;;;;;97.75;39.88;;;;;;;-0.79;100.00;97389.25;4985567;28;20046;-67
2022/01/16 03:33:02;;;;;;;92.13;39.58;;;;;;;-0.81;100.00;97390.59;4983149;28;20686;-65
2022/01/16 03:35:28;;;;;;;90.90;39.40;;;;;;;-0.84;100.00;97394.66;4997468;28;20069;-67
2022/01/16 03:37:53;;;;;;;89.10;38.47;;;;;;;-0.79;100.00;97386.56;5000008;28;20038;-67
2022/01/16 03:40:21;;;;;;;92.13;38.75;;;;;;;-0.85;100.00;97401.09;4980250;28;20421;-68
2022/01/16 03:42:48;;;;;;;89.80;38.28;;;;;;;-0.97;100.00;97395.25;4983505;28;20673;-67
2022/01/16 03:45:14;;;;;;;95.72;38.92;;;;;;;-0.98;100.00;97394.44;4977271;28;20026;-67
2022/01/16 03:47:39;;;;;;;89.63;37.55;;;;;;;-0.96;100.00;97394.16;4980735;28;20376;-65
2022/01/16 03:50:06;;;;;;;93.72;39.33;;;;;;;-0.92;100.00;97410.56;4980111;28;20061;-64
2022/01/16 03:52:32;;;;;;;81.32;36.60;;;;;;;-1.03;100.00;97407.91;4984477;28;20559;-67
2022/01/16 03:54:57;;;;;;;84.68;36.90;;;;;;;-1.00;100.00;97404.66;4986938;28;20050;-67
2022/01/16 03:57:23;;;;;;;92.63;37.38;;;;;;;-1.36;100.00;97404.75;4977166;28;20640;-67
2022/01/16 03:59:48;;;;;;;89.68;37.30;;;;;;;-1.32;100.00;97405.03;4984758;28;20038;-66
2022/01/16 04:02:14;;;;;;;89.97;39.05;;;;;;;-1.28;100.00;97406.09;4978768;28;20561;-67
2022/01/16 04:04:39;;;;;;;87.93;39.70;;;;;;;-1.32;100.00;97405.03;4984631;28;20118;-65
2022/01/16 04:07:07;;;;;;;89.03;37.83;;;;;;;-1.19;100.00;97414.41;4980184;28;20419;-66
2022/01/16 04:09:33;;;;;;;84.45;37.42;;;;;;;-1.17;100.00;97417.63;4983861;28;20053;-67
2022/01/16 04:11:58;;;;;;;77.68;34.63;;;;;;;-1.25;100.00;97424.38;4985119;28;20050;-66
2022/01/16 04:17:17;;;;;;;84.20;34.80;;;;;;;-1.55;100.00;97442.16;4993269;28;20049;-66
2022/01/16 04:19:43;;;;;;;86.57;36.63;;;;;;;-1.60;100.00;97439.47;4986241;28;20050;-67
2022/01/16 04:22:08;;;;;;;87.72;38.50;;;;;;;-1.64;100.00;97437.56;4977153;28;20045;-67
2022/01/16 04:24:35;;;;;;;77.55;36.15;;;;;;;-1.49;100.00;97437.56;4984659;28;20038;-65
2022/01/16 04:27:01;;;;;;;87.07;36.15;;;;;;;-1.38;100.00;97424.94;4991669;28;20099;-65
2022/01/16 04:29:27;;;;;;;84.47;36.75;;;;;;;-1.34;100.00;97428.69;4987624;28;20376;-65
2022/01/16 04:31:52;;;;;;;81.85;35.33;;;;;;;-1.28;100.00;97427.59;4982896;28;20054;-65
2022/01/16 04:34:18;;;;;;;75.60;35.40;;;;;;;-1.36;100.00;97428.16;4977543;28;20647;-66
2022/01/16 04:36:43;;;;;;;81.18;34.95;;;;;;;-1.33;100.00;97429.47;4981033;28;20049;-65
2022/01/16 04:39:14;;;;;;;71.13;32.65;;;;;;;-1.46;100.00;97426.31;4976048;28;20376;-65
2022/01/16 04:44:24;;;;;;;74.43;34.15;;;;;;;-1.57;100.00;97433.56;4978968;28;20612;-65
2022/01/16 04:46:50;;;;;;;74.68;32.58;;;;;;;-1.64;100.00;97442.94;4982511;28;20034;-65
2022/01/16 04:49:15;;;;;;;73.45;32.67;;;;;;;-1.58;100.00;97436.53;4993532;28;20050;-66
2022/01/16 04:51:41;;;;;;;69.43;32.80;;;;;;;-1.60;100.00;97430.63;4985085;28;20038;-64
2022/01/16 04:54:08;;;;;;;79.05;33.80;;;;;;;-1.63;100.00;97429.25;4991308;28;20050;-63
2022/01/16 04:56:34;;;;;;;67.47;31.58;;;;;;;-1.52;100.00;97429.25;4984567;28;20077;-66
2022/01/16 04:58:59;;;;;;;70.68;34.13;;;;;;;-1.59;100.00;97435.69;4984320;28;20038;-64
2022/01/16 05:01:24;;;;;;;69.40;32.10;;;;;;;-1.63;100.00;97420.41;4977989;28;20170;-65
2022/01/16 05:03:50;;;;;;;75.78;33.15;;;;;;;-1.71;100.00;97419.06;4982241;28;20141;-66
2022/01/16 05:06:16;;;;;;;78.35;35.08;;;;;;;-1.81;100.00;97425.22;5005620;28;20042;-65
2022/01/16 05:08:41;;;;;;;83.70;35.70;;;;;;;-1.83;100.00;97430.06;4996906;28;20042;-66
2022/01/16 05:11:09;;;;;;;77.40;32.78;;;;;;;-1.64;100.00;97441.09;4993593;28;20043;-67
2022/01/16 05:18:52;;;;;;;74.93;34.27;;;;;;;-1.70;100.00;97441.34;4982895;28;20123;-66
2022/01/16 05:21:19;;;;;;;77.78;34.17;;;;;;;-1.80;100.00;97448.34;4977732;28;20045;-65
2022/01/16 05:23:44;;;;;;;78.38;34.15;;;;;;;-1.68;100.00;97441.88;4974942;28;20077;-64
2022/01/16 05:26:12;;;;;;;86.50;36.45;;;;;;;-1.89;100.00;97444.56;4978533;28;20511;-67
2022/01/16 05:28:38;;;;;;;79.30;35.15;;;;;;;-1.84;100.00;97439.19;4978974;28;20039;-67
2022/01/16 05:31:04;;;;;;;92.65;39.05;;;;;;;-1.86;100.00;97448.59;4980058;28;20423;-63
2022/01/16 05:33:30;;;;;;;88.82;38.00;;;;;;;-1.89;100.00;97457.19;4980269;28;20043;-67
2022/01/16 05:35:56;;;;;;;83.63;36.55;;;;;;;-1.81;100.00;97457.44;4981718;28;20141;-68
2022/01/16 05:38:22;;;;;;;81.95;36.95;;;;;;;-1.80;100.00;97472.50;4977301;28;20730;-67
2022/01/16 05:40:47;;;;;;;86.05;37.40;;;;;;;-1.85;100.00;97469.81;4981437;28;20406;-66
2022/01/16 05:43:13;;;;;;;91.85;39.20;;;;;;;-1.82;100.00;97474.66;4977314;28;20042;-66
2022/01/16 05:45:39;;;;;;;90.53;39.80;;;;;;;-1.94;100.00;97468.72;4965204;28;20503;-67
2022/01/16 05:48:04;;;;;;;88.05;38.05;;;;;;;-1.83;100.00;97473.03;4974491;28;20053;-65
2022/01/16 05:50:33;;;;;;;91.15;37.78;;;;;;;-1.90;100.00;97471.69;4981312;28;20058;-66
2022/01/16 05:53:00;;;;;;;82.60;35.47;;;;;;;-1.87;100.00;97471.13;4996446;28;20398;-67
2022/01/16 05:55:33;;;;;;;86.72;38.55;;;;;;;-1.87;100.00;97469.28;4977023;28;20134;-66
2022/01/16 05:57:59;;;;;;;85.20;38.78;;;;;;;-2.01;100.00;97468.97;4982525;28;20136;-65
2022/01/16 06:00:25;;;;;;;85.07;36.08;;;;;;;-1.95;100.00;97467.09;4969356;28;20952;-67
2022/01/16 06:02:50;;;;;;;86.60;36.88;;;;;;;-1.84;100.00;97463.34;4981121;28;20523;-66
2022/01/16 06:05:16;;;;;;;83.53;35.97;;;;;;;-1.71;100.00;97470.09;4974833;28;20054;-62
2022/01/16 06:07:50;;;;;;;86.50;36.83;;;;;;;-1.69;100.00;97472.50;4979778;28;20046;-66
2022/01/16 06:10:16;;;;;;;86.65;35.97;;;;;;;-1.78;100.00;97475.72;4970384;28;20041;-66
2022/01/16 06:12:42;;;;;;;86.63;37.90;;;;;;;-1.66;100.00;97480.81;4982250;28;20038;-66
2022/01/16 06:15:07;;;;;;;81.22;37.17;;;;;;;-1.65;100.00;97484.34;4977183;28;20040;-66
2022/01/16 06:17:33;;;;;;;81.78;36.08;;;;;;;-1.75;100.00;97488.63;4979646;28;20508;-66
2022/01/16 06:19:58;;;;;;;90.88;37.70;;;;;;;-1.70;100.00;97505.81;4981445;28;20034;-66
2022/01/16 06:22:24;;;;;;;86.63;36.30;;;;;;;-1.72;100.00;97508.75;4975806;28;20328;-66
2022/01/16 06:24:49;;;;;;;84.57;36.67;;;;;;;-1.62;100.00;97511.47;4978226;28;20038;-67
2022/01/16 06:27:14;;;;;;;83.50;37.78;;;;;;;-1.46;100.00;97514.97;4972610;28;20077;-66
2022/01/16 06:29:40;;;;;;;80.22;36.63;;;;;;;-1.37;100.00;97507.16;4982337;28;20038;-66
2022/01/16 06:32:05;;;;;;;84.28;37.08;;;;;;;-1.41;100.00;97503.41;4988848;28;20059;-65
2022/01/16 06:34:31;;;;;;;83.45;36.92;;;;;;;-1.37;100.00;97507.97;4977152;28;20046;-66
2022/01/16 06:36:58;;;;;;;81.97;36.53;;;;;;;-1.54;100.00;97508.22;4997321;28;20050;-66
2022/01/16 06:39:24;;;;;;;82.32;35.80;;;;;;;-1.77;100.00;97509.56;4976023;28;20058;-66
2022/01/16 06:41:49;;;;;;;82.68;35.90;;;;;;;-1.71;100.00;97501.50;4982232;28;20053;-66
2022/01/16 06:44:15;;;;;;;77.15;35.90;;;;;;;-1.81;100.00;97508.47;4979776;28;20046;-66
2022/01/16 06:46:40;;;;;;;74.07;34.90;;;;;;;-1.63;100.00;97509.84;4992641;28;20042;-65
2022/01/16 06:49:06;;;;;;;77.68;35.78;;;;;;;-1.82;100.00;97508.75;4983458;28;20474;-65
2022/01/16 06:51:32;;;;;;;83.03;36.90;;;;;;;-1.85;100.00;97512.78;4985775;28;20046;-66
2022/01/16 06:53:57;;;;;;;73.63;33.47;;;;;;;-1.97;100.00;97525.63;4981694;28;20054;-65
2022/01/16 06:56:24;;;;;;;82.05;36.83;;;;;;;-2.04;100.00;97544.66;4975288;28;20605;-66
2022/01/16 06:58:50;;;;;;;82.13;37.47;;;;;;;-2.01;100.00;97546.03;4980205;28;20045;-64
2022/01/16 07:01:17;;;;;;;88.57;36.75;;;;;;;-2.04;100.00;97544.66;4975353;28;20046;-66
2022/01/16 07:03:43;;;;;;;80.78;35.88;;;;;;;-2.16;100.00;97552.16;4979759;28;20042;-65
2022/01/16 07:06:08;;;;;;;79.15;36.70;;;;;;;-2.16;100.00;97547.59;4976073;28;20038;-64
2022/01/16 07:08:34;;;;;;;83.05;36.80;;;;;;;-2.17;100.00;97556.72;4981628;28;20053;-65
2022/01/16 07:11:00;;;;;;;84.30;37.55;;;;;;;-2.12;100.00;97551.38;4980568;28;20142;-65
2022/01/16 07:13:27;;;;;;;85.47;37.65;;;;;;;-2.18;100.00;97554.28;4980753;28;20050;-64
2022/01/16 07:15:53;;;;;;;80.18;37.22;;;;;;;-2.07;100.00;97544.41;4983313;28;20131;-65
2022/01/16 07:18:19;;;;;;;81.68;37.28;;;;;;;-1.95;100.00;97553.03;4973019;28;20529;-65
2022/01/16 07:20:45;;;;;;;75.80;32.50;;;;;;;-1.98;100.00;97559.75;4980780;28;20117;-65
2022/01/16 07:23:12;;;;;;;88.95;36.60;;;;;;;-1.99;100.00;97570.75;4967956;28;20050;-65
2022/01/16 07:25:38;;;;;;;76.07;34.45;;;;;;;-2.00;100.00;97572.63;4981710;28;20042;-65
2022/01/16 07:28:04;;;;;;;87.80;38.92;;;;;;;-2.09;100.00;97574.19;4988467;28;20061;-64
2022/01/16 07:30:29;;;;;;;79.20;36.80;;;;;;;-2.12;100.00;97588.94;4976985;28;20042;-65
2022/01/16 07:32:55;;;;;;;86.20;37.97;;;;;;;-2.13;100.00;97579.25;4978428;28;20513;-65
2022/01/16 07:35:20;;;;;;;82.05;37.10;;;;;;;-2.23;100.00;97552.41;4975165;28;20581;-64
2022/01/16 07:37:47;;;;;;;86.13;38.33;;;;;;;-2.08;100.00;97567.75;4979249;28;20053;-65
2022/01/16 07:40:13;;;;;;;87.78;36.40;;;;;;;-2.08;100.00;97578.50;4989648;28;20483;-65
2022/01/16 07:42:39;;;;;;;78.63;35.08;;;;;;;-1.95;100.00;97574.50;4980453;28;20045;-66
2022/01/16 07:45:05;;;;;;;78.55;33.50;;;;;;;-1.89;100.00;97575.31;4976017;28;20133;-65
2022/01/16 07:47:31;;;;;;;78.43;33.53;;;;;;;-1.92;100.00;97580.16;4981916;28;20064;-65
2022/01/16 07:49:56;;;;;;;75.78;33.83;;;;;;;-1.87;100.00;97582.06;4983845;28;20042;-67
2022/01/16 07:52:22;;;;;;;78.05;35.03;;;;;;;-1.85;100.00;97581.78;4982905;28;20840;-64
2022/01/16 07:54:47;;;;;;;77.00;34.25;;;;;;;-1.96;100.00;97579.06;4985779;28;20546;-66
2022/01/16 07:57:13;;;;;;;76.85;33.72;;;;;;;-2.10;100.00;97586.00;4974545;28;20057;-68
2022/01/16 07:59:39;;;;;;;76.47;34.03;;;;;;;-1.89;100.00;97592.25;4981128;28;20065;-66
2022/01/16 08:02:05;;;;;;;75.28;35.10;;;;;;;-1.70;100.00;97595.25;4974211;28;20089;-64
2022/01/16 08:04:31;;;;;;;82.82;34.42;;;;;;;-1.49;100.00;97587.25;4978979;28;20491;-66
2022/01/16 08:06:56;;;;;;;75.57;33.60;;;;;;;-1.23;100.00;97588.06;4980032;28;20054;-66
2022/01/16 08:09:22;;;;;;;69.35;32.30;;;;;;;-1.11;100.00;97588.59;4974543;28;20149;-66
2022/01/16 08:11:47;;;;;;;75.40;34.83;;;;;;;-1.10;100.00;97584.03;4979880;28;20068;-66
2022/01/16 08:14:13;;;;;;;73.63;32.80;;;;;;;-1.22;100.00;97585.09;4989455;28;20042;-66
2022/01/16 08:16:38;;;;;;;64.30;32.05;;;;;;;-1.14;100.00;97586.44;4987663;28;20360;-65
2022/01/16 08:19:03;;;;;;;73.22;33.88;;;;;;;-1.17;100.00;97584.28;4981136;28;20034;-65
2022/01/16 08:21:29;;;;;;;69.82;33.28;;;;;;;-1.11;100.00;97585.13;4981972;28;20142;-66
2022/01/16 08:23:54;;;;;;;71.80;33.75;;;;;;;-0.91;100.00;97587.00;4982895;28;20030;-66
2022/01/16 08:26:20;;;;;;;71.00;34.20;;;;;;;-1.08;100.00;97595.31;4977924;28;20419;-67
2022/01/16 08:28:45;;;;;;;69.57;31.80;;;;;;;-1.12;100.00;97597.72;4981041;28;20044;-66
2022/01/16 08:31:11;;;;;;;69.28;32.00;;;;;;;-0.91;100.00;97595.84;4976259;28;20046;-67
2022/01/16 08:33:36;;;;;;;66.05;31.25;;;;;;;-0.08;100.00;97588.41;4983679;28;20104;-66
2022/01/16 08:36:03;;;;;;;63.97;30.95;;;;;;;0.34;100.00;97593.31;4982538;28;20050;-65
2022/01/16 08:38:30;;;;;;;62.38;30.00;;;;;;;0.73;100.00;97589.03;4981442;28;20046;-66
2022/01/16 08:40:56;;;;;;;61.70;29.27;;;;;;;0.94;100.00;97595.88;4982820;28;20077;-66
2022/01/16 08:43:21;;;;;;;63.22;29.33;;;;;;;1.76;94.36;97599.69;4976078;28;20748;-66
2022/01/16 08:45:47;;;;;;;58.53;27.52;;;;;;;1.99;90.82;97600.78;4980930;28;20046;-66
2022/01/16 08:48:12;;;;;;;50.28;25.25;;;;;;;1.85;91.52;97597.97;4977979;28;20037;-68
2022/01/16 08:50:38;;;;;;;54.40;26.73;;;;;;;1.73;92.86;97605.69;4982669;28;20050;-68
2022/01/16 08:53:04;;;;;;;49.97;25.85;;;;;;;1.68;93.78;97605.75;4978510;28;20034;-66
2022/01/16 08:55:33;;;;;;;52.03;25.23;;;;;;;1.43;94.37;97598.69;4981119;28;20384;-67
2022/01/16 08:57:59;;;;;;;47.50;24.00;;;;;;;1.00;98.13;97599.34;4979382;28;20052;-67
2022/01/16 09:00:25;;;;;;;49.40;26.23;;;;;;;0.44;100.00;97603.22;4978626;28;20135;-67
2022/01/16 09:02:50;;;;;;;56.03;25.73;;;;;;;0.29;100.00;97603.31;4979406;28;20035;-67
2022/01/16 09:05:16;;;;;;;50.90;25.25;;;;;;;0.33;100.00;97607.06;4978585;28;20463;-66
2022/01/16 09:07:42;;;;;;;54.63;26.10;;;;;;;0.23;100.00;97623.28;4981920;28;20038;-66
2022/01/16 09:10:08;;;;;;;50.28;25.75;;;;;;;0.28;100.00;97631.34;4975683;28;20045;-65
2022/01/16 09:12:34;;;;;;;53.05;24.73;;;;;;;0.19;100.00;97637.28;4981649;28;20042;-67
2022/01/16 09:15:00;;;;;;;47.53;24.40;;;;;;;0.22;100.00;97627.88;4983202;28;20042;-67
2022/01/16 09:17:26;;;;;;;49.15;25.02;;;;;;;0.15;100.00;97630.06;4974457;28;20120;-67
2022/01/16 09:19:51;;;;;;;56.28;24.83;;;;;;;0.16;100.00;97632.47;4998069;28;20184;-66
2022/01/16 09:22:16;;;;;;;46.38;24.30;;;;;;;0.02;100.00;97627.94;4989206;28;20043;-67
2022/01/16 09:24:42;;;;;;;53.85;26.48;;;;;;;0.59;100.00;97644.66;4996521;28;20517;-66
2022/01/16 09:27:08;;;;;;;51.95;23.52;;;;;;;1.18;100.00;97640.22;4979260;28;20135;-64
2022/01/16 09:29:33;;;;;;;46.63;23.27;;;;;;;1.40;98.85;97654.03;4985554;28;20042;-66
2022/01/16 09:31:59;;;;;;;46.28;22.77;;;;;;;1.81;95.15;97650.16;4982838;28;20153;-66
2022/01/16 09:34:24;;;;;;;59.70;26.65;;;;;;;1.90;93.52;97649.25;4975436;28;20046;-68
2022/01/16 09:36:50;;;;;;;50.55;24.70;;;;;;;2.40;90.38;97653.56;4981597;28;20104;-66
2022/01/16 09:39:15;;;;;;;53.05;24.52;;;;;;;2.23;90.52;97656.72;4976884;28;20046;-67
2022/01/16 09:41:42;;;;;;;50.97;25.77;;;;;;;2.82;89.70;97666.22;4977687;28;20050;-67
2022/01/16 09:44:07;;;;;;;43.92;23.10;;;;;;;3.24;85.34;97663.69;4977471;28;20081;-67
2022/01/16 09:46:35;;;;;;;40.67;20.33;;;;;;;3.17;84.24;97665.97;4987419;28;20046;-67
2022/01/16 09:49:01;;;;;;;43.25;21.20;;;;;;;3.73;82.23;97659.66;4984988;28;20046;-67
2022/01/16 09:51:26;;;;;;;44.53;22.67;;;;;;;3.70;82.65;97654.00;4993608;28;20057;-67
2022/01/16 09:53:52;;;;;;;39.53;20.05;;;;;;;4.18;79.87;97654.47;4980828;28;20038;-66
2022/01/16 09:56:18;;;;;;;43.17;20.35;;;;;;;4.53;78.06;97662.19;4975898;28;20122;-66
2022/01/16 09:58:43;;;;;;;41.15;22.15;;;;;;;4.44;76.89;97661.28;4987133;28;20458;-67
2022/01/16 10:01:09;;;;;;;40.95;21.27;;;;;;;4.60;76.56;97660.66;4979152;28;20497;-67
2022/01/16 10:03:40;;;;;;;42.88;22.33;;;;;;;4.72;78.20;97652.00;4981261;28;20053;-66
2022/01/16 10:06:16;;;;;;;40.38;20.60;;;;;;;5.13;75.87;97667.38;4976820;28;20049;-67
2022/01/16 10:08:43;;;;;;;37.03;20.80;;;;;;;5.63;73.44;97669.16;4982350;28;20081;-67
2022/01/16 10:11:40;;;;;;;39.60;21.35;;;;;;;6.09;71.61;97672.63;4973269;28;20042;-67
2022/01/16 10:14:22;;;;;;;36.35;18.98;;;;;;;5.98;70.21;97682.97;4987538;28;20034;-66
2022/01/16 10:16:49;;;;;;;37.42;19.70;;;;;;;5.31;72.27;97665.59;4979554;28;20062;-66
2022/01/16 10:19:20;;;;;;;41.75;20.25;;;;;;;5.06;73.26;97666.16;4976033;28;20046;-67
2022/01/16 10:21:46;;;;;;;39.80;21.25;;;;;;;5.21;73.04;97660.41;4980625;28;20043;-66
2022/01/16 10:24:23;;;;;;;38.85;19.75;;;;;;;5.13;74.46;97659.22;4976608;28;20104;-66
2022/01/16 10:27:10;;;;;;;38.70;20.25;;;;;;;4.79;76.13;97660.53;4977190;28;20054;-66
2022/01/16 10:29:40;;;;;;;38.88;21.20;;;;;;;5.21;74.27;97660.41;4976183;28;20046;-66
2022/01/16 10:32:14;;;;;;;40.78;21.55;;;;;;;5.09;74.02;97665.56;4976490;28;20121;-65
2022/01/16 10:34:41;;;;;;;38.00;19.05;;;;;;;5.74;71.82;97662.34;4981627;28;20128;-66
2022/01/16 10:37:23;;;;;;;37.65;19.17;;;;;;;5.08;73.49;97667.50;4973452;28;20396;-67
2022/01/16 10:39:58;;;;;;;37.38;20.27;;;;;;;5.53;70.75;97661.25;4979104;28;20046;-66
2022/01/16 10:42:26;;;;;;;41.03;18.52;;;;;;;5.29;70.03;97667.00;4971962;28;20046;-66
2022/01/16 10:44:56;;;;;;;40.17;20.10;;;;;;;5.23;71.40;97660.88;4976890;28;20050;-66
2022/01/16 10:47:31;;;;;;;39.35;20.20;;;;;;;4.93;75.32;97662.38;4974874;28;20053;-66
2022/01/16 10:50:06;;;;;;;44.53;22.58;;;;;;;5.01;76.14;97660.88;4979693;28;20042;-66
2022/01/16 10:52:32;;;;;;;39.88;21.95;;;;;;;4.87;76.01;97655.47;4980497;28;20042;-68
2022/01/16 10:55:08;;;;;;;42.10;21.42;;;;;;;4.69;76.44;97658.03;4978822;28;20422;-67
2022/01/16 10:57:34;;;;;;;50.03;23.77;;;;;;;5.10;75.05;97648.97;4976918;28;20483;-67
2022/01/16 11:00:15;;;;;;;41.75;20.55;;;;;;;5.59;70.73;97646.44;4978812;28;20057;-67
2022/01/16 11:02:42;;;;;;;35.75;19.13;;;;;;;5.30;70.41;97644.16;4979536;28;20073;-64
2022/01/16 11:05:15;;;;;;;37.63;20.20;;;;;;;5.46;68.64;97648.09;4988872;28;20429;-64
2022/01/16 11:07:40;;;;;;;35.55;18.08;;;;;;;5.19;70.02;97659.09;4978865;28;20513;-67
2022/01/16 11:10:21;;;;;;;39.67;19.73;;;;;;;5.14;72.01;97662.72;4972909;28;20046;-67
2022/01/16 11:12:49;;;;;;;42.45;19.80;;;;;;;5.71;70.09;97668.41;4977344;28;20109;-68
2022/01/16 11:15:14;;;;;;;40.72;21.67;;;;;;;5.85;70.93;97662.06;4975833;28;20394;-69
2022/01/16 11:17:40;;;;;;;37.30;17.77;;;;;;;5.40;68.43;97651.25;4978180;28;20153;-68
2022/01/16 11:20:07;;;;;;;35.33;16.95;;;;;;;5.34;67.21;97640.50;4973449;28;20083;-66
2022/01/16 11:22:45;;;;;;;32.17;16.40;;;;;;;4.92;69.50;97637.16;4979147;28;20053;-68
2022/01/16 11:25:23;;;;;;;32.22;17.67;;;;;;;4.59;70.42;97642.78;4977289;28;20582;-67
2022/01/16 11:27:50;;;;;;;38.65;17.67;;;;;;;3.93;71.68;97647.63;4976843;28;20054;-67
2022/01/16 11:30:15;;;;;;;35.30;16.38;;;;;;;4.17;72.95;97654.75;4975742;28;20034;-64
2022/01/16 11:32:40;;;;;;;36.75;18.33;;;;;;;4.15;72.55;97655.06;4980041;28;20122;-66
2022/01/16 11:35:07;;;;;;;37.22;16.90;;;;;;;4.39;72.12;97646.72;4969421;28;20042;-66
2022/01/16 11:37:35;;;;;;;33.08;16.40;;;;;;;4.81;70.80;97648.53;4973622;28;20121;-66
2022/01/16 11:40:27;;;;;;;36.03;17.85;;;;;;;4.84;70.22;97642.50;4977436;28;20467;-65
2022/01/16 11:43:12;;;;;;;32.72;15.25;;;;;;;4.69;68.88;97643.66;4971227;28;20559;-66
2022/01/16 11:46:06;;;;;;;39.15;17.58;;;;;;;4.37;70.93;97639.97;4985195;28;20551;-66
2022/01/16 11:48:36;;;;;;;32.55;15.77;;;;;;;4.59;70.30;97633.81;4965190;28;20038;-66
2022/01/16 11:51:25;;;;;;;30.02;15.05;;;;;;;5.11;68.19;97638.91;4977935;28;20042;-64
2022/01/16 11:54:23;;;;;;;28.25;15.43;;;;;;;5.25;65.21;97636.13;4983073;28;20515;-65
2022/01/16 11:56:55;;;;;;;24.05;13.63;;;;;;;5.08;67.43;97631.38;4977957;28;20053;-65
2022/01/16 11:59:23;;;;;;;28.70;13.82;;;;;;;5.00;67.10;97632.91;4979761;28;20129;-66
2022/01/16 12:02:00;;;;;;;24.63;13.63;;;;;;;5.41;65.63;97640.06;4983692;28;20069;-64
2022/01/16 12:04:32;;;;;;;30.83;15.27;;;;;;;5.38;66.60;97651.56;4979750;28;20518;-66
2022/01/16 12:07:12;;;;;;;25.15;13.00;;;;;;;5.65;64.29;97649.81;4987248;28;20077;-65
2022/01/16 12:12:22;;;;;;;26.85;12.65;;;;;;;5.13;65.95;97644.81;4978566;28;20062;-65